Time;durP1;ratioP1;P1;durP2;ratioP2;P2;SDS_P1;SDS_P2;PMS_P1;PMS_P2;Temp;Humidity;BMP_temperature;BMP_pressure;BME280_temperature;BME280_humidity;BME280_pressure;Samples;Min_cycle;Max_cycle;Signal;HPM_P1;HPM_P2
2023/03/07 00:00:55;;;;;;;50.80;28.80;;;;;;;-0.50;84.38;99143.87;108857;1258;89249;-59
2023/03/07 00:03:29;;;;;;;49.30;28.10;;;;;;;-0.46;84.35;99146.29;108872;1258;93801;-59
2023/03/07 00:06:10;;;;;;;51.60;29.90;;;;;;;-0.42;84.33;99146.93;108866;1259;79838;-60
2023/03/07 00:08:44;;;;;;;48.50;28.50;;;;;;;-0.38;84.35;99144.00;108857;1258;82381;-61
2023/03/07 00:11:18;;;;;;;45.70;27.50;;;;;;;-0.36;84.40;99146.25;108837;1258;99882;-61
2023/03/07 00:13:52;;;;;;;48.40;28.60;;;;;;;-0.35;84.45;99145.45;108884;1258;87491;-59
2023/03/07 00:16:27;;;;;;;47.50;27.10;;;;;;;-0.34;84.44;99148.44;108830;1260;94321;-59
2023/03/07 00:19:00;;;;;;;42.10;25.40;;;;;;;-0.38;84.42;99148.13;108835;1260;80001;-55
2023/03/07 00:21:34;;;;;;;46.10;26.60;;;;;;;-0.44;84.46;99148.67;108852;1258;83306;-55
2023/03/07 00:24:10;;;;;;;;;;;;;;;-0.46;84.39;99147.30;108863;1258;97145;-55
2023/03/07 00:26:44;;;;;;;43.50;24.70;;;;;;;-0.47;84.53;99146.48;108891;1258;86841;-59
2023/03/07 00:29:18;;;;;;;41.60;24.70;;;;;;;-0.44;84.59;99149.91;108847;1259;94111;-55
2023/03/07 00:31:52;;;;;;;38.20;22.60;;;;;;;-0.42;84.61;99145.89;108834;1258;79659;-57
2023/03/07 00:34:26;;;;;;;37.50;22.00;;;;;;;-0.47;84.42;99149.88;108857;1259;83180;-57
2023/03/07 00:37:01;;;;;;;33.30;19.80;;;;;;;-0.50;84.17;99144.00;108864;1258;97372;-59
2023/03/07 00:39:35;;;;;;;29.60;17.80;;;;;;;-0.52;84.06;99141.73;108893;1258;89195;-59
2023/03/07 00:42:09;;;;;;;31.70;17.90;;;;;;;-0.58;83.89;99141.60;108870;1258;95744;-56
2023/03/07 00:44:43;;;;;;;29.50;18.00;;;;;;;-0.68;83.93;99139.55;108836;1258;79585;-56
2023/03/07 00:47:17;;;;;;;31.40;18.90;;;;;;;-0.76;83.85;99136.20;108844;1258;84585;-59
2023/03/07 00:49:51;;;;;;;28.30;16.10;;;;;;;-0.81;83.67;99141.32;108855;1258;98240;-59
2023/03/07 00:52:26;;;;;;;36.30;20.40;;;;;;;-0.83;83.67;99138.19;108871;1258;88693;-57
2023/03/07 00:55:00;;;;;;;35.90;21.90;;;;;;;-0.88;83.77;99139.71;108879;1259;93862;-57
2023/03/07 00:57:34;;;;;;;35.90;20.80;;;;;;;-0.85;83.71;99141.02;108847;1258;79542;-57
2023/03/07 01:00:11;;;;;;;33.60;20.50;;;;;;;-0.85;83.70;99140.14;108915;1258;81670;-57
2023/03/07 01:02:45;;;;;;;33.90;20.00;;;;;;;-0.83;83.69;99139.44;108896;1258;99438;-61
2023/03/07 01:05:19;;;;;;;34.80;21.60;;;;;;;-0.89;83.66;99134.39;108890;1258;88431;-61
2023/03/07 01:07:53;;;;;;;37.10;20.70;;;;;;;-0.97;83.37;99135.30;108877;1258;92194;-57
2023/03/07 01:10:28;;;;;;;32.80;19.70;;;;;;;-1.13;83.25;99136.31;108864;1258;77189;-57
2023/03/07 01:13:02;;;;;;;34.30;19.70;;;;;;;-1.29;83.13;99135.94;108875;1258;81071;-59
2023/03/07 01:15:36;;;;;;;34.50;19.60;;;;;;;-1.48;83.02;99136.15;108792;1258;100214;-59
2023/03/07 01:18:11;;;;;;;31.40;18.30;;;;;;;-1.65;83.03;99136.23;108901;1257;89011;-57
2023/03/07 01:20:45;;;;;;;33.90;18.60;;;;;;;-1.77;82.82;99131.91;108893;1257;95651;-57
2023/03/07 01:23:19;;;;;;;31.70;18.30;;;;;;;-1.89;82.92;99136.13;108900;1257;79710;-59
2023/03/07 01:25:53;;;;;;;31.00;18.10;;;;;;;-2.00;82.90;99135.96;108902;1257;81379;-59
2023/03/07 01:28:27;;;;;;;27.80;16.20;;;;;;;-2.13;83.00;99133.00;108918;1257;98784;-59
2023/03/07 01:31:02;;;;;;;31.80;19.20;;;;;;;-2.22;82.90;99131.63;108939;1257;89034;-59
2023/03/07 01:33:36;;;;;;;29.30;17.20;;;;;;;-2.31;83.03;99132.02;108919;1257;93637;-55
2023/03/07 01:36:19;;;;;;;24.80;13.80;;;;;;;-2.44;82.86;99134.00;108898;1257;81899;-55
2023/03/07 01:38:56;;;;;;;31.00;17.80;;;;;;;-2.56;82.93;99132.52;108902;1257;83323;-57
2023/03/07 01:41:32;;;;;;;31.30;17.30;;;;;;;-2.68;83.07;99130.23;108907;1257;98285;-57
2023/03/07 01:44:16;;;;;;;31.20;16.80;;;;;;;-2.79;83.17;99128.55;108915;1257;88197;-57
2023/03/07 01:46:54;;;;;;;29.00;16.50;;;;;;;-2.88;83.28;99127.10;108886;1258;95602;-58
2023/03/07 01:49:32;;;;;;;30.10;16.30;;;;;;;-2.95;83.48;99125.80;108907;1257;81535;-59
2023/03/07 01:52:11;;;;;;;29.10;16.80;;;;;;;-3.00;83.46;99120.58;108902;1257;82161;-62
2023/03/07 01:54:49;;;;;;;32.20;17.30;;;;;;;-3.03;83.38;99125.94;108899;1257;97237;-62
2023/03/07 01:57:29;;;;;;;27.90;17.00;;;;;;;-3.05;83.77;99123.45;108928;1257;88729;-62
2023/03/07 02:00:10;;;;;;;31.90;17.60;;;;;;;-3.07;83.72;99126.17;108890;1257;93294;-62
2023/03/07 02:02:51;;;;;;;27.90;15.90;;;;;;;-3.10;83.71;99123.62;108897;1257;79217;-56
2023/03/07 02:05:33;;;;;;;30.90;17.10;;;;;;;-3.13;83.69;99126.36;108916;1257;83054;-56
2023/03/07 02:08:12;;;;;;;27.50;16.10;;;;;;;-3.21;83.92;99130.16;108915;1257;99913;-62
2023/03/07 02:10:47;;;;;;;28.50;16.20;;;;;;;-3.28;83.92;99127.67;108925;1257;88448;-62
2023/03/07 02:13:22;;;;;;;31.00;17.10;;;;;;;-3.36;83.70;99127.44;108946;1257;93154;-56
2023/03/07 02:15:55;;;;;;;;;;;;;;;-3.38;83.84;99128.57;108931;1257;82179;-56
2023/03/07 02:18:33;;;;;;;28.70;15.50;;;;;;;-3.43;83.88;99128.86;108925;1257;81634;-56
2023/03/07 02:21:19;;;;;;;30.20;16.70;;;;;;;-3.47;83.91;99125.84;108932;1257;97897;-56
2023/03/07 02:24:01;;;;;;;27.00;16.00;;;;;;;-3.52;83.94;99126.77;108949;1257;86060;-60
2023/03/07 02:26:49;;;;;;;29.10;16.60;;;;;;;-3.59;83.86;99128.94;108902;1257;95473;-59
2023/03/07 02:29:24;;;;;;;28.90;15.40;;;;;;;-3.68;83.97;99130.59;108916;1257;78793;-58
2023/03/07 02:31:58;;;;;;;32.20;16.70;;;;;;;-3.76;84.10;99125.63;108950;1257;82099;-59
2023/03/07 02:34:32;;;;;;;30.90;16.90;;;;;;;-3.82;84.16;99124.05;108905;1257;99646;-59
2023/03/07 02:37:08;;;;;;;;;;;;;;;-3.81;84.46;99125.05;108958;1257;88593;-59
2023/03/07 02:39:45;;;;;;;28.70;15.80;;;;;;;-3.82;84.23;99127.93;108896;1257;94918;-59
2023/03/07 02:42:23;;;;;;;32.80;17.60;;;;;;;-3.82;84.23;99125.68;108904;1257;78101;-61
2023/03/07 02:45:03;;;;;;;36.50;18.50;;;;;;;-3.86;84.59;99123.19;108897;1257;80767;-62
2023/03/07 02:47:37;;;;;;;35.90;20.10;;;;;;;-3.85;84.47;99120.00;108923;1257;98299;-59
2023/03/07 02:50:15;;;;;;;38.40;19.40;;;;;;;-3.87;84.38;99119.24;108916;1257;88777;-59
2023/03/07 02:52:49;;;;;;;37.20;19.60;;;;;;;-3.85;84.52;99122.06;108908;1257;94809;-58
2023/03/07 02:55:23;;;;;;;35.80;20.50;;;;;;;-3.84;84.33;99122.36;108910;1257;79886;-58
2023/03/07 02:57:57;;;;;;;39.30;22.30;;;;;;;-3.86;84.75;99123.61;108934;1257;80406;-59
2023/03/07 03:00:39;;;;;;;34.70;18.40;;;;;;;-3.86;84.73;99121.98;108905;1258;99763;-58
2023/03/07 03:03:13;;;;;;;50.80;26.70;;;;;;;-3.82;85.10;99122.84;108942;1257;88602;-58
2023/03/07 03:05:47;;;;;;;58.20;30.60;;;;;;;-3.79;85.34;99120.48;108933;1257;95538;-56
2023/03/07 03:08:21;;;;;;;58.60;30.70;;;;;;;-3.72;85.34;99117.75;108930;1257;81345;-56
2023/03/07 03:10:57;;;;;;;63.40;33.00;;;;;;;-3.62;85.44;99114.82;108942;1257;83080;-56
2023/03/07 03:13:31;;;;;;;66.60;33.30;;;;;;;-3.49;85.96;99116.82;108897;1257;99602;-56
2023/03/07 03:16:06;;;;;;;64.50;32.40;;;;;;;-3.40;85.98;99119.01;108946;1257;88106;-58
2023/03/07 03:18:40;;;;;;;71.60;34.20;;;;;;;-3.30;86.00;99116.04;108911;1257;95524;-58
2023/03/07 03:21:15;;;;;;;72.70;34.40;;;;;;;-3.20;86.15;99112.89;108898;1257;78751;-59
2023/03/07 03:23:49;;;;;;;68.60;33.30;;;;;;;-3.07;86.37;99113.64;108956;1257;82520;-59
2023/03/07 03:26:23;;;;;;;69.10;35.10;;;;;;;-2.98;86.15;99117.92;108948;1257;98265;-56
2023/03/07 03:28:59;;;;;;;67.10;34.20;;;;;;;-2.92;86.42;99117.60;108967;1257;87873;-56
2023/03/07 03:31:34;;;;;;;68.40;33.40;;;;;;;-2.85;86.26;99118.35;108910;1257;93896;-60
2023/03/07 03:34:06;;;;;;;;;;;;;;;-2.78;86.23;99114.56;108924;1257;80175;-60
2023/03/07 03:36:40;;;;;;;69.10;33.00;;;;;;;-2.71;86.34;99114.48;108958;1257;81402;-56
2023/03/07 03:39:14;;;;;;;64.40;32.10;;;;;;;-2.73;86.41;99114.69;108930;1257;98423;-56
2023/03/07 03:41:48;;;;;;;70.80;34.70;;;;;;;-2.66;86.41;99114.94;108970;1257;86326;-58
2023/03/07 03:44:23;;;;;;;64.80;32.80;;;;;;;-2.62;86.54;99113.83;108942;1257;94928;-58
2023/03/07 03:46:57;;;;;;;66.90;34.90;;;;;;;-2.61;86.40;99113.56;108939;1257;78926;-62
2023/03/07 03:49:32;;;;;;;65.30;33.70;;;;;;;-2.61;86.29;99116.73;108919;1258;82526;-62
2023/03/07 03:52:06;;;;;;;68.80;36.80;;;;;;;-2.70;86.51;99113.99;108940;1257;99623;-62
2023/03/07 03:54:40;;;;;;;64.50;32.30;;;;;;;-2.66;86.55;99112.48;108916;1257;89334;-62
2023/03/07 03:57:19;;;;;;;59.60;31.00;;;;;;;-2.64;86.39;99112.45;108931;1257;94324;-56
2023/03/07 03:59:54;;;;;;;58.60;30.50;;;;;;;-2.66;86.37;99113.80;108907;1257;80752;-56
2023/03/07 04:02:29;;;;;;;62.60;32.70;;;;;;;-2.67;86.52;99114.08;108928;1257;82567;-56
2023/03/07 04:05:04;;;;;;;58.10;32.20;;;;;;;-2.66;86.49;99112.59;108928;1257;98829;-56
2023/03/07 04:07:37;;;;;;;54.60;30.80;;;;;;;-2.71;86.57;99116.19;108931;1257;86138;-56
2023/03/07 04:10:13;;;;;;;57.80;30.70;;;;;;;-2.67;86.52;99114.81;108944;1257;95212;-56
2023/03/07 04:12:47;;;;;;;54.00;29.90;;;;;;;-2.66;86.66;99114.34;108920;1257;78672;-56
2023/03/07 04:15:21;;;;;;;54.20;29.80;;;;;;;-2.62;86.49;99115.95;108926;1257;82892;-59
2023/03/07 04:17:56;;;;;;;52.50;27.50;;;;;;;-2.61;86.53;99111.43;108917;1257;99749;-60
2023/03/07 04:20:30;;;;;;;55.20;28.70;;;;;;;-2.72;86.68;99107.70;108964;1257;88784;-59
2023/03/07 04:23:04;;;;;;;58.40;30.30;;;;;;;-2.78;86.42;99106.17;108897;1257;94054;-60
2023/03/07 04:25:38;;;;;;;57.50;31.20;;;;;;;-2.79;86.81;99104.83;108903;1257;81217;-60
2023/03/07 04:28:12;;;;;;;60.70;31.60;;;;;;;-2.78;86.82;99103.88;108932;1257;82929;-59
2023/03/07 04:30:48;;;;;;;58.90;30.20;;;;;;;-2.72;86.71;99101.33;108939;1257;99895;-62
2023/03/07 04:33:23;;;;;;;54.50;28.60;;;;;;;-2.69;86.66;99102.29;108948;1257;88967;-62
2023/03/07 04:35:57;;;;;;;47.40;27.10;;;;;;;-2.67;86.36;99101.09;108947;1257;95361;-62
2023/03/07 04:38:31;;;;;;;46.80;25.90;;;;;;;-2.66;86.57;99096.39;108923;1257;80627;-62
2023/03/07 04:41:05;;;;;;;45.50;26.40;;;;;;;-2.62;86.41;99095.50;108581;1257;491687;-56
2023/03/07 04:43:39;;;;;;;47.50;27.00;;;;;;;-2.61;86.22;99092.08;108923;1257;97557;-56
2023/03/07 04:46:14;;;;;;;49.90;28.30;;;;;;;-2.65;86.44;99095.95;108967;1257;86373;-56
2023/03/07 04:48:49;;;;;;;47.70;26.40;;;;;;;-2.65;86.57;99098.19;108901;1257;95086;-56
2023/03/07 04:51:21;;;;;;;;;;;;;;;-2.72;86.46;99102.41;108964;1257;77798;-60
2023/03/07 04:53:55;;;;;;;45.20;27.00;;;;;;;-2.68;86.39;99101.30;108952;1257;80228;-60
2023/03/07 04:56:29;;;;;;;41.40;24.10;;;;;;;-2.69;86.56;99094.06;108939;1257;99114;-56
2023/03/07 04:59:03;;;;;;;49.70;26.50;;;;;;;-2.77;86.50;99093.01;108937;1257;85606;-56
2023/03/07 05:01:38;;;;;;;47.00;25.20;;;;;;;-2.77;86.60;99094.09;108924;1257;92991;-58
2023/03/07 05:04:10;;;;;;;;;;;;;;;-2.82;86.54;99089.91;108892;1257;81173;-58
2023/03/07 05:06:44;;;;;;;50.00;26.30;;;;;;;-2.82;86.65;99092.55;108927;1257;83020;-59
2023/03/07 05:09:18;;;;;;;38.50;21.70;;;;;;;-2.75;86.57;99087.23;108909;1257;99639;-60
2023/03/07 05:11:52;;;;;;;50.20;27.80;;;;;;;-2.71;86.43;99087.69;108931;1257;88348;-60
2023/03/07 05:14:27;;;;;;;51.40;27.30;;;;;;;-2.72;86.58;99086.55;108921;1257;94508;-59
2023/03/07 05:17:01;;;;;;;49.00;26.00;;;;;;;-2.67;86.55;99085.10;108946;1257;80816;-62
2023/03/07 05:19:35;;;;;;;53.40;27.30;;;;;;;-2.70;86.69;99084.77;108828;1257;84423;-62
2023/03/07 05:22:09;;;;;;;46.00;27.10;;;;;;;-2.67;86.56;99087.38;108939;1258;99635;-61
2023/03/07 05:24:44;;;;;;;48.90;26.80;;;;;;;-2.64;86.71;99090.52;108942;1257;87213;-62
2023/03/07 05:27:20;;;;;;;47.00;26.50;;;;;;;-2.64;86.47;99092.69;108913;1257;95869;-57
2023/03/07 05:29:54;;;;;;;48.70;27.00;;;;;;;-2.69;86.45;99089.23;108893;1257;81236;-57
2023/03/07 05:32:29;;;;;;;54.20;28.20;;;;;;;-2.70;86.51;99094.86;108938;1257;81515;-56
2023/03/07 05:35:02;;;;;;;;;;;;;;;-2.71;86.37;99095.99;108910;1257;97265;-61
2023/03/07 05:37:37;;;;;;;55.00;29.00;;;;;;;-2.66;86.57;99095.52;108935;1257;88136;-62
2023/03/07 05:40:15;;;;;;;56.60;29.00;;;;;;;-2.62;86.38;99102.91;108907;1257;93930;-62
2023/03/07 05:42:50;;;;;;;52.20;27.30;;;;;;;-2.60;86.78;99101.13;108904;1257;80655;-62
2023/03/07 05:45:24;;;;;;;56.80;28.20;;;;;;;-2.61;86.68;99101.08;108954;1257;81928;-61
2023/03/07 05:47:57;;;;;;;;;;;;;;;-2.54;86.63;99103.06;108925;1257;97768;-62
2023/03/07 05:50:31;;;;;;;60.90;29.90;;;;;;;-2.55;86.85;99104.69;108939;1257;88565;-56
2023/03/07 05:53:06;;;;;;;64.40;32.00;;;;;;;-2.51;86.83;99105.41;108845;1257;96018;-56
2023/03/07 05:55:41;;;;;;;62.30;29.80;;;;;;;-2.53;86.96;99110.73;108911;1258;81636;-56
2023/03/07 05:58:15;;;;;;;67.40;32.20;;;;;;;-2.47;86.80;99112.61;108970;1257;81549;-56
2023/03/07 06:00:48;;;;;;;;;;;;;;;-2.41;87.02;99112.57;108967;1257;97153;-58
2023/03/07 06:03:22;;;;;;;66.90;32.00;;;;;;;-2.39;87.20;99111.58;108944;1257;88571;-59
2023/03/07 06:05:55;;;;;;;;;;;;;;;-2.30;87.05;99112.86;108950;1257;91877;-63
2023/03/07 06:08:30;;;;;;;65.70;33.00;;;;;;;-2.24;86.96;99113.29;108940;1257;76828;-61
2023/03/07 06:11:05;;;;;;;64.00;33.80;;;;;;;-2.23;86.78;99111.09;108959;1257;83513;-58
2023/03/07 06:13:41;;;;;;;62.40;32.80;;;;;;;-2.26;86.79;99109.54;108906;1257;98161;-57
2023/03/07 06:16:16;;;;;;;59.70;31.80;;;;;;;-2.23;86.67;99105.52;108954;1257;88858;-56
2023/03/07 06:19:05;;;;;;;60.60;33.10;;;;;;;-2.17;86.58;99097.71;108902;1257;94500;-56
2023/03/07 06:21:40;;;;;;;58.20;32.00;;;;;;;-2.04;86.65;99102.48;108867;1257;79879;-58
2023/03/07 06:24:15;;;;;;;66.90;32.50;;;;;;;-1.95;86.67;99101.77;108936;1257;83013;-58
2023/03/07 06:26:48;;;;;;;58.60;31.00;;;;;;;-1.86;86.75;99101.65;108919;1257;98302;-60
2023/03/07 06:29:23;;;;;;;59.60;31.00;;;;;;;-1.80;86.60;99102.86;108909;1257;88885;-60
2023/03/07 06:31:56;;;;;;;;;;;;;;;-1.83;86.83;99102.80;108922;1257;93175;-56
2023/03/07 06:34:30;;;;;;;48.20;25.30;;;;;;;-1.82;86.62;99106.06;108937;1257;79983;-56
2023/03/07 06:37:04;;;;;;;50.20;26.40;;;;;;;-1.82;86.54;99107.40;108932;1257;82561;-58
2023/03/07 06:39:38;;;;;;;50.90;27.50;;;;;;;-1.79;86.51;99106.64;108928;1257;99535;-58
2023/03/07 06:42:13;;;;;;;53.00;28.70;;;;;;;-1.84;86.49;99104.95;108936;1257;88422;-59
2023/03/07 06:44:48;;;;;;;56.80;27.80;;;;;;;-1.70;86.49;99100.15;108879;1257;93897;-58
2023/03/07 06:47:22;;;;;;;58.40;29.40;;;;;;;-1.58;86.51;99096.89;108900;1257;80986;-62
2023/03/07 06:49:56;;;;;;;55.20;28.80;;;;;;;-1.48;86.23;99092.20;108937;1257;85394;-62
2023/03/07 06:52:30;;;;;;;64.50;31.80;;;;;;;-1.44;86.17;99090.64;108934;1257;96951;-59
2023/03/07 06:55:05;;;;;;;54.00;28.40;;;;;;;-1.41;86.16;99086.23;108936;1258;88489;-58
2023/03/07 06:57:38;;;;;;;;;;;;;;;-1.34;86.10;99091.16;108962;1257;94950;-59
2023/03/07 07:00:19;;;;;;;53.50;28.10;;;;;;;-1.34;85.89;99089.23;108930;1257;79883;-58
2023/03/07 07:02:54;;;;;;;52.40;27.40;;;;;;;-1.29;85.95;99087.01;108985;1257;82748;-60
2023/03/07 07:05:28;;;;;;;49.50;27.30;;;;;;;-1.17;85.73;99082.52;108927;1257;99339;-58
2023/03/07 07:08:02;;;;;;;54.60;27.60;;;;;;;-1.11;85.53;99079.30;108916;1257;89227;-58
2023/03/07 07:10:36;;;;;;;52.00;29.10;;;;;;;-1.01;85.43;99077.95;108927;1257;92911;-57
2023/03/07 07:13:11;;;;;;;61.30;29.80;;;;;;;-0.92;85.15;99076.02;108903;1257;80873;-63
2023/03/07 07:15:45;;;;;;;57.50;29.10;;;;;;;-0.92;85.29;99070.69;108965;1257;82147;-60
2023/03/07 07:18:20;;;;;;;57.30;30.20;;;;;;;-0.82;85.21;99067.27;108940;1257;99573;-60
2023/03/07 07:20:58;;;;;;;58.80;29.90;;;;;;;-0.61;85.23;99063.84;108840;1257;88461;-58
2023/03/07 07:23:32;;;;;;;52.40;27.40;;;;;;;-0.46;85.16;99064.07;108918;1257;94080;-58
2023/03/07 07:26:07;;;;;;;50.20;27.10;;;;;;;-0.38;85.11;99059.30;108914;1257;79594;-56
2023/03/07 07:28:41;;;;;;;51.30;27.40;;;;;;;-0.27;85.07;99058.36;108921;1257;82830;-56
2023/03/07 07:31:15;;;;;;;47.00;24.80;;;;;;;-0.09;84.69;99053.56;108916;1257;97611;-61
2023/03/07 07:33:50;;;;;;;49.70;27.20;;;;;;;0.02;84.67;99050.49;108932;1257;87738;-62
2023/03/07 07:36:24;;;;;;;47.20;25.20;;;;;;;0.09;84.68;99047.45;108910;1257;95090;-62
2023/03/07 07:38:58;;;;;;;46.30;26.10;;;;;;;0.16;84.34;99048.63;108934;1257;78958;-62
2023/03/07 07:41:34;;;;;;;52.50;28.30;;;;;;;0.19;83.74;99052.56;108947;1258;82715;-58
2023/03/07 07:44:10;;;;;;;55.80;29.50;;;;;;;0.18;83.39;99044.77;108913;1258;97741;-58
2023/03/07 07:46:44;;;;;;;53.00;29.10;;;;;;;0.58;83.63;99041.61;108949;1257;87774;-58
2023/03/07 07:49:17;;;;;;;;;;;;;;;1.73;84.21;99037.70;108914;1257;94766;-58
2023/03/07 07:51:52;;;;;;;48.00;28.60;;;;;;;2.76;84.35;99036.09;108904;1257;81865;-62
2023/03/07 07:54:26;;;;;;;47.70;27.90;;;;;;;3.82;83.36;99032.24;108956;1257;81671;-62
2023/03/07 07:56:59;;;;;;;;;;;;;;;4.73;81.81;99026.00;108937;1257;98511;-58
2023/03/07 07:59:34;;;;;;;41.30;26.40;;;;;;;4.74;81.37;99027.57;108952;1257;88217;-58
2023/03/07 08:02:07;;;;;;;;;;;;;;;4.96;80.53;99024.02;108936;1260;94805;-59
2023/03/07 08:04:41;;;;;;;41.50;26.70;;;;;;;5.74;80.47;99011.91;108843;1260;79189;-59
2023/03/07 08:07:16;;;;;;;39.30;24.80;;;;;;;7.17;79.97;99007.45;108941;1257;82781;-60
2023/03/07 08:09:50;;;;;;;38.00;26.30;;;;;;;8.47;77.55;99000.89;108927;1257;99806;-60
2023/03/07 08:12:24;;;;;;;35.60;25.30;;;;;;;9.61;77.40;98997.42;108942;1257;87134;-58
2023/03/07 08:14:58;;;;;;;31.40;23.30;;;;;;;10.52;76.00;98996.52;108911;1257;95156;-58
2023/03/07 08:17:33;;;;;;;32.60;23.30;;;;;;;10.81;73.45;98990.70;108902;1257;80105;-64
2023/03/07 08:20:10;;;;;;;30.90;23.70;;;;;;;10.39;70.80;98993.93;108918;1257;82538;-65
2023/03/07 08:22:48;;;;;;;29.40;23.30;;;;;;;10.76;70.21;98990.71;108943;1257;97208;-58
2023/03/07 08:25:24;;;;;;;27.80;22.00;;;;;;;11.37;69.13;98979.27;108924;1257;89211;-61
2023/03/07 08:28:01;;;;;;;30.30;23.50;;;;;;;12.02;68.92;98973.78;108905;1259;95519;-60
2023/03/07 08:30:37;;;;;;;29.80;22.70;;;;;;;12.73;68.50;98972.54;108935;1257;80399;-60
2023/03/07 08:33:11;;;;;;;27.60;21.80;;;;;;;12.96;66.38;98967.22;108926;1259;83415;-60
2023/03/07 08:35:45;;;;;;;26.60;21.40;;;;;;;13.34;65.72;98962.71;108942;1258;99849;-60
2023/03/07 08:38:18;;;;;;;;;;;;;;;12.83;62.62;98957.84;108971;1257;89365;-60
2023/03/07 08:40:53;;;;;;;25.40;20.90;;;;;;;12.65;60.63;98948.30;108910;1257;94387;-56
2023/03/07 08:43:27;;;;;;;29.00;21.60;;;;;;;12.04;58.68;98947.38;108907;1257;80111;-55
2023/03/07 08:46:02;;;;;;;24.30;19.90;;;;;;;12.15;58.29;98950.69;108946;1257;83441;-56
2023/03/07 08:48:36;;;;;;;25.90;19.30;;;;;;;11.96;57.39;98948.10;108909;1259;97458;-57
2023/03/07 08:51:13;;;;;;;21.60;17.80;;;;;;;12.18;57.98;98949.34;108893;1261;87195;-57
2023/03/07 08:53:48;;;;;;;24.20;19.50;;;;;;;11.87;56.98;98945.71;108919;1257;95660;-54
2023/03/07 08:56:22;;;;;;;23.00;20.50;;;;;;;11.82;56.74;98940.21;108893;1257;80465;-59
2023/03/07 08:58:55;;;;;;;;;;;;;;;11.43;56.63;98941.07;108946;1258;83494;-56
2023/03/07 09:01:30;;;;;;;22.90;19.50;;;;;;;11.56;56.35;98938.39;108921;1257;99036;-54
2023/03/07 09:04:04;;;;;;;21.30;19.00;;;;;;;12.12;57.81;98933.42;108901;1257;89178;-54
2023/03/07 09:06:39;;;;;;;22.40;18.80;;;;;;;12.08;55.37;98932.24;108916;1257;94490;-53
2023/03/07 09:09:13;;;;;;;22.10;19.10;;;;;;;11.83;53.81;98934.40;108897;1258;80046;-53
2023/03/07 09:11:48;;;;;;;20.90;18.70;;;;;;;11.65;53.71;98931.98;108977;1257;82911;-53
2023/03/07 09:14:22;;;;;;;22.00;19.00;;;;;;;11.52;54.11;98929.31;108939;1257;98777;-53
2023/03/07 09:16:54;;;;;;;;;;;;;;;11.61;53.78;98927.88;108964;1257;87923;-58
2023/03/07 09:19:28;;;;;;;21.50;19.20;;;;;;;11.46;53.62;98923.05;108920;1259;92577;-58
2023/03/07 09:22:02;;;;;;;22.20;18.90;;;;;;;11.20;52.41;98923.76;108893;1258;81029;-54
2023/03/07 09:24:37;;;;;;;22.80;19.20;;;;;;;10.88;52.05;98925.04;108875;1257;81808;-54
2023/03/07 09:27:11;;;;;;;22.20;19.70;;;;;;;11.01;53.58;98922.91;108943;1257;99683;-54
2023/03/07 09:29:43;;;;;;;;;;;;;;;11.33;53.77;98915.23;108946;1257;88331;-54
2023/03/07 09:32:17;;;;;;;23.00;19.60;;;;;;;11.50;53.89;98909.03;108907;1257;93990;-59
2023/03/07 09:34:51;;;;;;;21.50;19.20;;;;;;;11.69;52.90;98908.52;108872;1259;80274;-59
2023/03/07 09:37:26;;;;;;;22.90;20.50;;;;;;;11.62;52.85;98904.17;108912;1257;80763;-54
2023/03/07 09:39:58;;;;;;;;;;;;;;;11.79;52.54;98901.48;108949;1257;98988;-54
2023/03/07 09:42:42;;;;;;;24.50;20.20;;;;;;;12.00;53.49;98901.94;108920;1258;88604;-53
2023/03/07 09:45:31;;;;;;;22.10;19.80;;;;;;;11.66;51.48;98901.07;108908;1257;95465;-53
2023/03/07 09:48:50;;;;;;;23.00;20.60;;;;;;;11.25;52.09;98899.77;108885;1257;79578;-59
2023/03/07 09:51:36;;;;;;;22.60;20.20;;;;;;;10.80;52.24;98897.75;108924;1257;82878;-54
2023/03/07 09:54:16;;;;;;;23.70;20.00;;;;;;;11.21;53.36;98891.36;108918;1257;97512;-54
2023/03/07 09:56:55;;;;;;;22.50;20.10;;;;;;;11.41;53.87;98885.16;108916;1257;88447;-57
2023/03/07 09:59:36;;;;;;;22.30;19.60;;;;;;;11.58;54.04;98878.73;108955;1257;93438;-57
2023/03/07 10:02:20;;;;;;;23.40;19.70;;;;;;;11.38;53.15;98873.02;108884;1257;79798;-53
2023/03/07 10:05:00;;;;;;;24.10;21.10;;;;;;;10.97;53.55;98875.52;108908;1259;82748;-53
2023/03/07 10:07:35;;;;;;;27.40;21.20;;;;;;;10.53;54.04;98877.02;108925;1257;99965;-57
2023/03/07 10:10:19;;;;;;;24.90;21.00;;;;;;;10.11;53.87;98867.17;108953;1258;89117;-57
2023/03/07 10:13:11;;;;;;;28.20;22.10;;;;;;;9.49;53.84;98872.17;108911;1257;94333;-54
2023/03/07 10:15:52;;;;;;;29.40;22.20;;;;;;;8.76;54.82;98869.46;108885;1259;79715;-58
2023/03/07 10:18:54;;;;;;;28.70;22.10;;;;;;;8.14;56.16;98868.98;108942;1257;83190;-58
2023/03/07 10:21:38;;;;;;;30.30;23.40;;;;;;;7.85;57.04;98872.74;108927;1257;97953;-57
2023/03/07 10:24:31;;;;;;;33.30;22.80;;;;;;;7.52;57.43;98869.71;108922;1257;87358;-57
2023/03/07 10:27:09;;;;;;;32.70;23.60;;;;;;;7.31;58.39;98862.20;108915;1257;95603;-53
2023/03/07 10:29:49;;;;;;;33.80;23.20;;;;;;;6.93;58.52;98868.75;108896;1257;80144;-53
2023/03/07 10:32:36;;;;;;;34.00;23.60;;;;;;;6.45;59.17;98866.25;108923;1257;83302;-57
2023/03/07 10:35:20;;;;;;;34.10;24.30;;;;;;;6.13;59.95;98865.12;108936;1257;99523;-57
2023/03/07 10:37:59;;;;;;;33.80;23.60;;;;;;;5.96;60.55;98859.29;108882;1257;88579;-57
2023/03/07 10:40:40;;;;;;;34.60;23.60;;;;;;;5.60;61.35;98856.10;108892;1257;95011;-54
2023/03/07 10:43:23;;;;;;;33.20;24.10;;;;;;;5.40;62.23;98844.83;108895;1257;80237;-53
2023/03/07 10:46:10;;;;;;;35.10;24.60;;;;;;;5.53;62.87;98834.86;108913;1261;81518;-53
2023/03/07 10:48:49;;;;;;;39.20;24.40;;;;;;;5.53;63.20;98827.20;108909;1257;99965;-53
2023/03/07 10:51:45;;;;;;;34.50;23.20;;;;;;;5.65;63.35;98814.44;108926;1257;88442;-58
2023/03/07 10:54:23;;;;;;;33.80;23.60;;;;;;;5.38;63.76;98811.33;108915;1258;92768;-58
2023/03/07 10:57:13;;;;;;;36.90;23.90;;;;;;;5.50;63.94;98805.17;108907;1258;79230;-53
2023/03/07 10:59:49;;;;;;;35.40;24.80;;;;;;;5.61;64.34;98800.18;108919;1257;83044;-53
2023/03/07 11:02:39;;;;;;;32.60;23.70;;;;;;;5.94;64.22;98791.41;108928;1257;100446;-53
2023/03/07 11:05:31;;;;;;;35.90;25.10;;;;;;;6.17;64.43;98787.39;108904;1257;88422;-53
2023/03/07 11:08:26;;;;;;;35.20;24.60;;;;;;;6.14;64.38;98780.08;108935;1257;94091;-53
2023/03/07 11:11:02;;;;;;;34.20;24.50;;;;;;;6.23;64.45;98779.66;108893;1261;79291;-54
2023/03/07 11:13:37;;;;;;;37.30;24.60;;;;;;;6.33;64.69;98774.29;108929;1258;83522;-54
2023/03/07 11:16:24;;;;;;;36.80;25.00;;;;;;;6.44;64.75;98772.09;108909;1257;100261;-56
2023/03/07 11:18:58;;;;;;;36.70;25.80;;;;;;;6.50;64.53;98758.98;108929;1259;87217;-56
2023/03/07 11:21:33;;;;;;;;;;;;;;;6.47;64.50;98754.64;108909;1258;95506;-57
2023/03/07 11:24:20;;;;;;;;;;;;;;;6.33;64.58;98747.05;108888;1258;79173;-58
2023/03/07 11:26:58;;;;;;;38.60;24.30;;;;;;;6.14;64.54;98743.88;108907;1258;81988;-56
2023/03/07 11:29:33;;;;;;;36.50;24.60;;;;;;;5.93;64.96;98739.76;108915;1259;99760;-56
2023/03/07 11:32:18;;;;;;;39.50;26.50;;;;;;;5.92;65.18;98727.38;108948;1257;86362;-54
2023/03/07 11:34:59;;;;;;;39.90;25.90;;;;;;;5.76;65.50;98730.01;108896;1257;95526;-53
2023/03/07 11:37:38;;;;;;;40.40;27.60;;;;;;;5.53;65.88;98727.63;108891;1257;78536;-58
2023/03/07 11:40:26;;;;;;;44.60;28.30;;;;;;;5.68;66.21;98731.98;108923;1260;82173;-58
2023/03/07 11:43:13;;;;;;;40.50;28.40;;;;;;;5.64;66.29;98724.47;108925;1259;98949;-58
2023/03/07 11:46:00;;;;;;;39.70;25.70;;;;;;;5.69;66.58;98720.69;108909;1258;87945;-53
2023/03/07 11:48:56;;;;;;;38.80;25.20;;;;;;;5.73;66.77;98710.58;108890;1261;93634;-53
2023/03/07 11:51:49;;;;;;;41.30;27.20;;;;;;;5.77;67.08;98703.58;108892;1259;77809;-56
2023/03/07 11:54:34;;;;;;;38.70;26.90;;;;;;;5.80;67.12;98690.20;108938;1258;80958;-56
2023/03/07 11:57:24;;;;;;;40.30;26.50;;;;;;;5.95;67.29;98682.86;108895;1261;98650;-57
2023/03/07 12:00:22;;;;;;;36.50;25.50;;;;;;;6.09;67.00;98684.27;108934;1257;88529;-58